createdAt,value
2022-10-05T00:00:28.894Z,89.23
2022-10-05T00:02:55.986Z,89.72
2022-10-05T00:05:33.328Z,89.37
2022-10-05T00:08:20.426Z,89.95
2022-10-05T00:10:47.065Z,89.74
2022-10-05T00:13:35.414Z,89.97
2022-10-05T00:16:10.841Z,89.50
2022-10-05T00:18:37.950Z,89.67
2022-10-05T00:21:27.098Z,89.99
2022-10-05T00:23:56.272Z,90.76
2022-10-05T00:26:27.284Z,90.83
2022-10-05T00:28:54.611Z,89.92
2022-10-05T00:31:23.383Z,90.11
2022-10-05T00:33:50.171Z,90.49
2022-10-05T00:36:17.222Z,90.53
2022-10-05T00:38:44.322Z,89.75
2022-10-05T00:41:26.487Z,89.30
2022-10-05T00:44:28.674Z,89.49
2022-10-05T00:47:13.695Z,89.81
2022-10-05T00:49:59.101Z,89.60
2022-10-05T00:52:47.165Z,89.33
2022-10-05T00:55:19.621Z,89.08
2022-10-05T00:58:11.830Z,88.91
2022-10-05T01:01:15.099Z,88.86
2022-10-05T01:03:48.810Z,89.21
2022-10-05T01:06:18.437Z,88.98
2022-10-05T01:08:56.933Z,89.02
2022-10-05T01:11:26.571Z,89.59
2022-10-05T01:14:23.189Z,89.66
2022-10-05T01:16:59.783Z,89.41
2022-10-05T01:19:48.178Z,89.01
2022-10-05T01:22:41.590Z,89.29
2022-10-05T01:25:21.468Z,88.69
2022-10-05T01:27:52.499Z,89.22
2022-10-05T01:30:20.820Z,89.29
2022-10-05T01:32:56.144Z,89.25
2022-10-05T01:35:49.210Z,89.42
2022-10-05T01:38:39.100Z,89.31
2022-10-05T01:41:36.716Z,88.94
2022-10-05T01:44:16.401Z,88.93
2022-10-05T01:47:05.207Z,89.03
2022-10-05T01:49:40.779Z,89.31
2022-10-05T01:52:11.316Z,89.29
2022-10-05T01:55:15.310Z,88.77
2022-10-05T01:58:08.344Z,88.74
2022-10-05T02:01:04.295Z,89.16
2022-10-05T02:03:36.824Z,89.59
2022-10-05T02:06:13.727Z,89.14
2022-10-05T02:08:51.617Z,89.87
2022-10-05T02:11:18.693Z,89.37
2022-10-05T02:13:53.495Z,89.56
2022-10-05T02:16:30.465Z,89.19
2022-10-05T02:19:02.351Z,89.37
2022-10-05T02:21:31.114Z,89.91
2022-10-05T02:24:02.321Z,90.08
2022-10-05T02:26:29.703Z,89.73
2022-10-05T02:28:59.286Z,90.05
2022-10-05T02:31:29.531Z,90.23
2022-10-05T02:34:28.209Z,90.46
2022-10-05T02:37:22.526Z,90.87
2022-10-05T02:40:10.130Z,91.02
2022-10-05T02:42:58.117Z,91.45
2022-10-05T02:45:29.969Z,92.13
2022-10-05T02:48:44.131Z,92.48
2022-10-05T02:51:24.417Z,91.92
2022-10-05T02:53:56.856Z,91.78
2022-10-05T02:56:29.932Z,92.10
2022-10-05T02:59:15.149Z,92.63
2022-10-05T03:01:58.675Z,93.42
2022-10-05T03:05:17.565Z,93.66
2022-10-05T03:07:46.862Z,93.15
2022-10-05T03:10:16.612Z,92.73
2022-10-05T03:13:02.838Z,92.84
2022-10-05T03:15:43.974Z,93.82
2022-10-05T03:18:35.086Z,93.81
2022-10-05T03:21:23.774Z,94.09
2022-10-05T03:23:57.513Z,94.39
2022-10-05T03:26:53.326Z,93.62
2022-10-05T03:29:37.873Z,93.98
2022-10-05T03:32:13.444Z,93.83
2022-10-05T03:35:14.411Z,92.91
2022-10-05T03:37:50.112Z,92.87
2022-10-05T03:40:27.352Z,93.58
2022-10-05T03:43:21.914Z,94.48
2022-10-05T03:46:03.567Z,94.49
2022-10-05T03:48:57.566Z,94.62
2022-10-05T03:51:30.802Z,94.14
2022-10-05T03:54:03.477Z,94.12
2022-10-05T03:56:32.650Z,93.54
2022-10-05T03:59:13.758Z,94.13
2022-10-05T04:01:47.909Z,93.79
2022-10-05T04:04:46.265Z,93.74
2022-10-05T04:07:40.516Z,94.07
2022-10-05T04:10:17.641Z,94.49
2022-10-05T04:12:50.467Z,94.51
2022-10-05T04:15:29.084Z,94.84
2022-10-05T04:18:03.210Z,94.62
2022-10-05T04:20:36.678Z,94.30
2022-10-05T04:23:36.436Z,94.18
2022-10-05T04:26:07.811Z,94.16
2022-10-05T04:28:43.742Z,94.19
2022-10-05T04:31:15.567Z,94.48
2022-10-05T04:33:44.649Z,94.47
2022-10-05T04:36:21.579Z,94.21
2022-10-05T04:38:58.424Z,94.43
2022-10-05T04:42:04.597Z,94.49
2022-10-05T04:44:49.968Z,94.93
2022-10-05T04:47:26.964Z,96.34
2022-10-05T04:50:17.884Z,96.84
2022-10-05T04:53:00.697Z,97.07
2022-10-05T04:55:49.145Z,96.45
2022-10-05T04:59:00.364Z,96.30
2022-10-05T05:01:54.416Z,95.78
2022-10-05T05:04:20.953Z,95.73
2022-10-05T05:07:21.346Z,95.20
2022-10-05T05:10:20.064Z,96.03
2022-10-05T05:13:08.593Z,95.92
2022-10-05T05:15:44.428Z,96.00
2022-10-05T05:18:23.058Z,96.06
2022-10-05T05:21:17.113Z,96.41
2022-10-05T05:24:30.360Z,95.76
2022-10-05T05:26:59.890Z,95.68
2022-10-05T05:29:46.226Z,95.74
2022-10-05T05:32:24.817Z,95.88
2022-10-05T05:35:32.113Z,95.63
2022-10-05T05:38:14.077Z,94.86
2022-10-05T05:41:04.044Z,95.12
2022-10-05T05:43:33.374Z,94.89
2022-10-05T05:46:01.514Z,95.50
2022-10-05T05:48:44.260Z,95.01
2022-10-05T05:51:16.038Z,95.88
2022-10-05T05:53:46.113Z,94.92
2022-10-05T05:56:35.000Z,94.74
2022-10-05T05:59:11.185Z,94.93
2022-10-05T06:01:45.303Z,94.85
2022-10-05T06:04:22.543Z,95.00
2022-10-05T06:06:52.212Z,95.55
2022-10-05T06:09:35.442Z,95.74
2022-10-05T06:12:22.890Z,95.48
2022-10-05T06:14:54.609Z,95.55
2022-10-05T06:17:48.911Z,95.79
2022-10-05T06:20:33.135Z,95.58
2022-10-05T06:23:02.910Z,95.61
2022-10-05T06:25:55.649Z,95.62
2022-10-05T06:28:24.952Z,95.88
2022-10-05T06:31:13.043Z,96.26
2022-10-05T06:34:22.383Z,97.16
2022-10-05T06:36:51.597Z,97.74
2022-10-05T06:39:31.016Z,98.35
2022-10-05T06:41:57.614Z,98.70
2022-10-05T06:44:43.001Z,99.52
2022-10-05T06:47:27.394Z,99.24
2022-10-05T06:50:35.433Z,98.83
2022-10-05T06:53:20.145Z,99.19
2022-10-05T06:56:07.793Z,99.83
2022-10-05T06:58:41.736Z,100.00
2022-10-05T07:01:16.103Z,100.00
2022-10-05T07:04:20.361Z,100.00
2022-10-05T07:06:51.365Z,100.00
2022-10-05T07:09:39.722Z,100.00
2022-10-05T07:12:18.607Z,100.00
2022-10-05T07:14:47.918Z,100.00
2022-10-05T07:17:23.195Z,100.00
2022-10-05T07:20:09.215Z,100.00
2022-10-05T07:22:47.841Z,100.00
2022-10-05T07:25:20.159Z,100.00
2022-10-05T07:28:08.461Z,100.00
2022-10-05T07:30:43.837Z,100.00
2022-10-05T07:33:29.337Z,100.00
2022-10-05T07:36:18.879Z,100.00
2022-10-05T07:38:53.252Z,100.00
2022-10-05T07:41:33.668Z,100.00
2022-10-05T07:44:22.701Z,100.00
2022-10-05T07:46:49.746Z,100.00
2022-10-05T07:49:36.505Z,100.00
2022-10-05T07:52:10.338Z,100.00
2022-10-05T07:54:48.859Z,100.00
2022-10-05T07:57:15.409Z,100.00
2022-10-05T07:59:45.731Z,100.00
2022-10-05T08:02:19.916Z,100.00
2022-10-05T08:05:18.500Z,100.00
2022-10-05T08:07:46.073Z,100.00
2022-10-05T08:10:31.835Z,100.00
2022-10-05T08:13:12.145Z,100.00
2022-10-05T08:15:43.307Z,100.00
2022-10-05T08:18:37.163Z,100.00
2022-10-05T08:21:06.297Z,100.00
2022-10-05T08:23:41.979Z,100.00
2022-10-05T08:26:39.359Z,100.00
2022-10-05T08:29:30.861Z,100.00
2022-10-05T08:32:01.569Z,100.00
2022-10-05T08:34:35.090Z,100.00
2022-10-05T08:37:07.948Z,100.00
2022-10-05T08:39:42.725Z,100.00
2022-10-05T08:42:12.168Z,100.00
2022-10-05T08:45:07.781Z,100.00
2022-10-05T08:47:53.126Z,100.00
2022-10-05T08:50:49.974Z,100.00
2022-10-05T08:53:23.755Z,100.00
2022-10-05T08:56:01.743Z,100.00
2022-10-05T08:58:34.251Z,100.00
2022-10-05T09:01:23.164Z,100.00
2022-10-05T09:04:37.317Z,100.00
2022-10-05T09:07:41.230Z,100.00
2022-10-05T09:10:32.190Z,100.00
2022-10-05T09:13:24.790Z,100.00
2022-10-05T09:16:16.128Z,100.00
2022-10-05T09:18:52.889Z,100.00
2022-10-05T09:21:30.455Z,100.00
2022-10-05T09:24:13.251Z,100.00
2022-10-05T09:26:45.182Z,99.99
2022-10-05T09:29:29.628Z,98.87
2022-10-05T09:31:59.050Z,98.58
2022-10-05T09:34:28.362Z,97.13
2022-10-05T09:37:33.737Z,96.56
2022-10-05T09:40:25.599Z,95.15
2022-10-05T09:43:22.810Z,93.83
2022-10-05T09:46:35.429Z,91.96
2022-10-05T09:49:44.927Z,90.93
2022-10-05T09:52:39.452Z,89.71
2022-10-05T09:55:34.095Z,87.47
2022-10-05T09:58:38.260Z,86.97
2022-10-05T10:01:34.234Z,86.08
2022-10-05T10:04:28.854Z,84.30
2022-10-05T10:07:33.036Z,83.50
2022-10-05T10:10:21.164Z,82.46
2022-10-05T10:13:35.170Z,81.09
2022-10-05T10:16:03.983Z,79.69
2022-10-05T10:19:08.613Z,78.23
2022-10-05T10:21:53.613Z,76.38
2022-10-05T10:24:51.189Z,75.20
2022-10-05T10:27:20.648Z,75.00
2022-10-05T10:30:05.332Z,72.57
2022-10-05T10:33:15.625Z,72.88
2022-10-05T10:35:51.246Z,72.11
2022-10-05T10:38:34.145Z,71.12
2022-10-05T10:41:09.811Z,71.46
2022-10-05T10:43:45.501Z,70.27
2022-10-05T10:46:27.600Z,69.89
2022-10-05T10:49:22.109Z,68.42
2022-10-05T10:51:54.399Z,66.50
2022-10-05T10:54:47.984Z,65.95
2022-10-05T10:57:25.786Z,65.09
2022-10-05T11:00:22.381Z,64.01
2022-10-05T11:03:08.553Z,63.98
2022-10-05T11:05:35.150Z,62.12
2022-10-05T11:08:12.656Z,61.92
2022-10-05T11:11:17.928Z,62.22
2022-10-05T11:14:05.844Z,62.28
2022-10-05T11:16:39.777Z,61.66
2022-10-05T11:19:20.406Z,59.73
2022-10-05T11:22:12.574Z,59.35
2022-10-05T11:24:54.799Z,58.50
2022-10-05T11:27:50.421Z,59.02
2022-10-05T11:30:50.442Z,59.23
2022-10-05T11:33:43.987Z,58.63
2022-10-05T11:36:29.110Z,57.75
2022-10-05T11:39:02.249Z,57.17
2022-10-05T11:41:48.169Z,57.32
2022-10-05T11:44:39.665Z,57.40
2022-10-05T11:47:21.418Z,57.61
2022-10-05T11:50:12.708Z,57.42
2022-10-05T11:52:42.009Z,56.90
2022-10-05T11:55:20.438Z,56.92
2022-10-05T11:57:52.927Z,55.48
2022-10-05T12:00:25.590Z,56.64
2022-10-05T12:03:29.894Z,56.36
2022-10-05T12:06:17.516Z,55.02
2022-10-05T12:08:56.702Z,56.45
2022-10-05T12:11:57.699Z,54.29
2022-10-05T12:14:33.584Z,54.90
2022-10-05T12:17:03.222Z,53.26
2022-10-05T12:19:36.745Z,53.53
2022-10-05T12:22:19.226Z,52.19
2022-10-05T12:25:17.137Z,53.09
2022-10-05T12:27:46.412Z,52.25
2022-10-05T12:30:54.914Z,52.27
2022-10-05T12:33:26.197Z,51.02
2022-10-05T12:36:00.253Z,50.46
2022-10-05T12:38:30.649Z,50.37
2022-10-05T12:41:28.743Z,50.54
2022-10-05T12:44:03.277Z,50.43
2022-10-05T12:46:34.653Z,50.16
2022-10-05T12:49:15.188Z,49.47
2022-10-05T12:51:44.542Z,49.87
2022-10-05T12:54:30.778Z,49.58
2022-10-05T12:57:01.244Z,49.81
2022-10-05T12:59:40.468Z,50.71
2022-10-05T13:02:45.001Z,50.19
2022-10-05T13:05:11.598Z,49.13
2022-10-05T13:07:41.105Z,49.76
2022-10-05T13:10:28.322Z,49.76
2022-10-05T13:13:02.291Z,49.73
2022-10-05T13:15:37.939Z,48.89
2022-10-05T13:18:11.918Z,49.45
2022-10-05T13:20:48.180Z,48.93
2022-10-05T13:23:24.946Z,48.06
2022-10-05T13:26:15.957Z,47.43
2022-10-05T13:28:57.486Z,48.01
2022-10-05T13:31:40.656Z,47.60
2022-10-05T13:34:32.100Z,46.83
2022-10-05T13:37:01.586Z,46.31
2022-10-05T13:39:34.942Z,46.13
2022-10-05T13:42:18.713Z,46.17
2022-10-05T13:44:54.194Z,46.55
2022-10-05T13:47:41.294Z,46.28
2022-10-05T13:50:21.655Z,46.53
2022-10-05T13:53:10.217Z,46.53
2022-10-05T13:55:39.861Z,46.85
2022-10-05T13:58:32.488Z,47.04
2022-10-05T14:01:02.345Z,46.38
2022-10-05T14:03:35.165Z,46.46
2022-10-05T14:06:11.358Z,46.71
2022-10-05T14:08:52.153Z,47.58
2022-10-05T14:11:31.842Z,48.14
2022-10-05T14:14:14.677Z,47.20
2022-10-05T14:16:58.819Z,47.55
2022-10-05T14:19:28.056Z,47.60
2022-10-05T14:22:01.698Z,47.00
2022-10-05T14:24:49.960Z,47.51
2022-10-05T14:27:21.226Z,46.88
2022-10-05T14:30:00.597Z,46.69
2022-10-05T14:32:32.635Z,47.46
2022-10-05T14:35:13.366Z,46.54
2022-10-05T14:37:45.101Z,46.25
2022-10-05T14:40:28.365Z,47.83
2022-10-05T14:42:55.296Z,47.92
2022-10-05T14:45:26.848Z,47.71
2022-10-05T14:48:02.550Z,47.39
2022-10-05T14:50:31.450Z,47.36
2022-10-05T14:53:10.309Z,47.17
2022-10-05T14:56:17.438Z,46.83
2022-10-05T14:59:13.680Z,46.60
2022-10-05T15:01:46.931Z,47.07
2022-10-05T15:04:34.514Z,47.80
2022-10-05T15:07:19.871Z,47.81
2022-10-05T15:10:07.389Z,47.27
2022-10-05T15:12:44.129Z,47.25
2022-10-05T15:16:05.854Z,47.77
2022-10-05T15:18:49.200Z,48.33
2022-10-05T15:21:21.693Z,48.67
2022-10-05T15:23:57.754Z,49.67
2022-10-05T15:26:30.166Z,49.85
2022-10-05T15:29:14.833Z,51.53
2022-10-05T15:32:14.876Z,51.79
2022-10-05T15:34:49.943Z,52.92
2022-10-05T15:37:22.173Z,52.95
2022-10-05T15:39:48.741Z,52.83
2022-10-05T15:42:22.891Z,53.49
2022-10-05T15:44:52.330Z,54.08
2022-10-05T15:47:35.149Z,54.75
2022-10-05T15:50:13.722Z,55.17
2022-10-05T15:53:12.215Z,55.42
2022-10-05T15:56:01.225Z,56.78
2022-10-05T15:58:46.329Z,57.90
2022-10-05T16:01:17.639Z,58.42
2022-10-05T16:03:56.378Z,58.51
2022-10-05T16:07:01.841Z,59.04
2022-10-05T16:09:49.848Z,59.42
2022-10-05T16:12:37.933Z,59.31
2022-10-05T16:15:08.792Z,59.69
2022-10-05T16:18:01.325Z,60.76
2022-10-05T16:20:46.703Z,61.67
2022-10-05T16:23:28.046Z,62.02
2022-10-05T16:25:54.611Z,62.48
2022-10-05T16:28:24.240Z,63.34
2022-10-05T16:30:59.357Z,63.04
2022-10-05T16:33:29.366Z,63.73
2022-10-05T16:36:07.665Z,64.35
2022-10-05T16:38:43.097Z,64.57
2022-10-05T16:41:36.081Z,65.47
2022-10-05T16:44:29.040Z,66.21
2022-10-05T16:47:04.679Z,67.28
2022-10-05T16:49:54.994Z,67.72
2022-10-05T16:52:23.625Z,68.30
2022-10-05T16:54:58.027Z,68.78
2022-10-05T16:57:26.331Z,70.03
2022-10-05T16:59:52.992Z,70.11
2022-10-05T17:02:41.510Z,70.58
2022-10-05T17:05:18.800Z,71.27
2022-10-05T17:08:19.055Z,71.95
2022-10-05T17:10:54.269Z,72.39
2022-10-05T17:14:02.527Z,72.96
2022-10-05T17:16:35.639Z,73.13
2022-10-05T17:19:26.369Z,73.83
2022-10-05T17:22:00.801Z,74.27
2022-10-05T17:24:54.422Z,74.57
2022-10-05T17:27:33.461Z,75.26
2022-10-05T17:30:46.323Z,75.89
2022-10-05T17:33:14.319Z,75.99
2022-10-05T17:35:50.937Z,76.36
2022-10-05T17:38:23.641Z,76.34
2022-10-05T17:41:14.326Z,76.92
2022-10-05T17:43:42.044Z,77.23
2022-10-05T17:46:09.707Z,77.77
2022-10-05T17:48:44.157Z,77.84
2022-10-05T17:51:47.363Z,79.27
2022-10-05T17:54:44.618Z,79.42
2022-10-05T17:57:11.206Z,79.90
2022-10-05T17:59:47.061Z,79.41
2022-10-05T18:02:15.721Z,79.07
2022-10-05T18:04:50.923Z,79.33
2022-10-05T18:07:23.238Z,79.06
2022-10-05T18:09:54.236Z,79.43
2022-10-05T18:12:42.889Z,79.52
2022-10-05T18:15:09.463Z,79.35
2022-10-05T18:17:47.588Z,79.55
2022-10-05T18:20:22.959Z,79.74
2022-10-05T18:22:51.163Z,80.17
2022-10-05T18:25:26.285Z,80.66
2022-10-05T18:28:16.042Z,80.54
2022-10-05T18:30:59.153Z,80.87
2022-10-05T18:33:34.552Z,81.06
2022-10-05T18:36:27.504Z,81.49
2022-10-05T18:39:06.113Z,81.51
2022-10-05T18:42:03.251Z,81.35
2022-10-05T18:44:30.592Z,81.66
2022-10-05T18:47:15.693Z,81.84
2022-10-05T18:50:14.404Z,82.00
2022-10-05T18:53:09.010Z,81.82
2022-10-05T18:55:39.278Z,82.06
2022-10-05T18:58:17.943Z,82.00
2022-10-05T19:00:59.488Z,82.57
2022-10-05T19:03:31.893Z,82.48
2022-10-05T19:06:13.797Z,82.78
2022-10-05T19:08:56.850Z,82.76
2022-10-05T19:11:37.703Z,84.00
2022-10-05T19:14:28.988Z,83.70
2022-10-05T19:17:24.946Z,84.01
2022-10-05T19:20:23.769Z,83.65
2022-10-05T19:23:12.553Z,83.72
2022-10-05T19:26:08.204Z,84.05
2022-10-05T19:28:38.996Z,83.81
2022-10-05T19:31:32.541Z,83.62
2022-10-05T19:34:19.380Z,84.18
2022-10-05T19:37:14.131Z,84.48
2022-10-05T19:39:54.809Z,84.75
2022-10-05T19:42:30.336Z,84.72
2022-10-05T19:45:09.293Z,84.97
2022-10-05T19:47:44.702Z,84.86
2022-10-05T19:50:29.363Z,84.72
2022-10-05T19:53:13.477Z,84.61
2022-10-05T19:55:45.823Z,84.44
2022-10-05T19:58:22.549Z,84.40
2022-10-05T20:00:53.729Z,84.63
2022-10-05T20:03:27.317Z,84.86
2022-10-05T20:05:55.905Z,85.02
2022-10-05T20:08:27.051Z,84.92
2022-10-05T20:11:13.249Z,84.87
2022-10-05T20:13:42.374Z,84.71
2022-10-05T20:16:34.215Z,84.99
2022-10-05T20:19:38.949Z,85.19
2022-10-05T20:22:27.626Z,85.39
2022-10-05T20:24:56.991Z,85.76
2022-10-05T20:27:42.930Z,85.90
2022-10-05T20:30:15.067Z,86.65
2022-10-05T20:32:42.151Z,86.88
2022-10-05T20:35:08.922Z,87.60
2022-10-05T20:37:36.907Z,87.88
2022-10-05T20:40:05.256Z,87.93
2022-10-05T20:42:31.921Z,88.09
2022-10-05T20:44:58.921Z,87.60
2022-10-05T20:47:26.164Z,86.73
2022-10-05T20:49:55.646Z,86.31
2022-10-05T20:52:23.278Z,86.18
2022-10-05T20:54:53.874Z,86.10
2022-10-05T20:57:24.343Z,86.40
2022-10-05T20:59:51.577Z,86.65
2022-10-05T21:02:20.973Z,86.53
2022-10-05T21:04:47.940Z,86.72
2022-10-05T21:07:19.941Z,86.40
2022-10-05T21:09:46.965Z,86.26
2022-10-05T21:12:14.674Z,86.32
2022-10-05T21:14:41.337Z,86.33
2022-10-05T21:17:08.209Z,86.54
2022-10-05T21:19:41.311Z,87.34
2022-10-05T21:22:08.922Z,88.19
2022-10-05T21:24:39.824Z,87.97
2022-10-05T21:27:07.249Z,88.04
2022-10-05T21:29:35.443Z,87.47
2022-10-05T21:32:02.183Z,87.10
2022-10-05T21:34:29.093Z,86.96
2022-10-05T21:36:56.292Z,87.76
2022-10-05T21:39:23.755Z,87.15
2022-10-05T21:41:50.457Z,87.32
2022-10-05T21:44:17.073Z,86.85
2022-10-05T21:46:43.770Z,86.59
2022-10-05T21:49:11.127Z,86.68
2022-10-05T21:51:38.419Z,86.41
2022-10-05T21:54:16.926Z,86.30
2022-10-05T21:56:47.294Z,86.57
2022-10-05T21:59:17.133Z,86.92
2022-10-05T22:01:44.073Z,86.12
2022-10-05T22:04:10.737Z,86.63
2022-10-05T22:06:37.441Z,87.80
2022-10-05T22:09:04.569Z,87.57
2022-10-05T22:11:31.730Z,86.99
2022-10-05T22:14:04.307Z,86.54
2022-10-05T22:16:35.328Z,86.52
2022-10-05T22:19:06.649Z,87.14
2022-10-05T22:21:38.046Z,86.86
2022-10-05T22:24:05.065Z,86.85
2022-10-05T22:26:32.256Z,86.88
2022-10-05T22:28:59.006Z,87.37
2022-10-05T22:31:25.698Z,87.33
2022-10-05T22:33:52.344Z,87.65
2022-10-05T22:36:19.291Z,87.42
2022-10-05T22:38:47.690Z,87.60
2022-10-05T22:41:16.576Z,87.40
2022-10-05T22:43:43.179Z,87.41
2022-10-05T22:46:11.865Z,88.04
2022-10-05T22:48:39.437Z,88.67
2022-10-05T22:51:06.531Z,89.19
2022-10-05T22:53:33.670Z,88.98
2022-10-05T22:56:18.598Z,88.38
2022-10-05T22:58:45.493Z,88.21
2022-10-05T23:01:14.313Z,87.73
2022-10-05T23:03:41.406Z,87.96
2022-10-05T23:06:13.520Z,87.73
2022-10-05T23:08:41.062Z,87.83
2022-10-05T23:11:13.257Z,87.75
2022-10-05T23:13:40.488Z,87.99
2022-10-05T23:16:17.655Z,87.98
2022-10-05T23:18:44.883Z,87.82
2022-10-05T23:21:11.855Z,87.55
2022-10-05T23:23:40.097Z,87.49
2022-10-05T23:26:08.979Z,88.53
2022-10-05T23:28:35.666Z,88.22
2022-10-05T23:31:05.437Z,87.52
2022-10-05T23:33:32.462Z,87.80
2022-10-05T23:35:59.293Z,87.60
2022-10-05T23:38:26.241Z,87.33
2022-10-05T23:40:53.298Z,87.17
2022-10-05T23:43:20.034Z,87.46
2022-10-05T23:45:47.204Z,87.64
2022-10-05T23:48:14.282Z,88.16
2022-10-05T23:50:40.932Z,88.18
2022-10-05T23:53:07.553Z,88.21
2022-10-05T23:55:34.190Z,88.18
2022-10-05T23:58:00.817Z,88.61
